Lower Peach Tree, Alabama
Current Conditions -  °F | °C
As of 10:53 PM on Tuesday 25 Nov 2014 (Local Time) from KGZH Reporting Station
Clear Clear  
Wind Chill: 10°   Ceiling: Unl
Heat Index: 10°   Visibility: 10mi
Dew Point: -2°   Wind: 7mph
Humidity: 44%   Direction: 330°NNW
Pressure: 30.13"   Gusts: 18mph
Location:  31.84°N, 87.55°W
Report Text: KGZH 260453Z AUTO 33006G16KT 10SM CLR 10/M02 A3013 RMK AO2 SLP201 T01001017
Loading
Personal Weather Stations






























Interactive Weather Map New forecast layout! Learn more

10-Day Weather Forecast

Advertisements
Track Severe Weather on mobile